Terminal Aerodrome Forecast
Issued by NWS

Home | Current Version | Previous Version | Text Only | Print | Product List | Glossary On
Versions: 1 2 3 4 5 6 7 8 9 10 11 12 13 14 15 16 17 18 19 20 21
000
FTUS42 KFFC 180500
TAFPDK
TAF
KPDK 180529Z 1806/1906 00000KT P6SM FEW150
     FM181000 VRB03KT P6SM SCT012
      TEMPO 1811/1814 6SM BR BKN012
     FM181500 04005KT P6SM SCT030
     FM181700 34006KT P6SM SCT045
     FM190000 35005KT P6SM FEW060=

USA.gov is the U.S. government's official web portal to all federal, state and local government web resources and services.